KHDE/HDE METAR and TAF weather

Enter ICAO airport designator
Station Type Date Time Source
KHDE METAR 2020/10/20 17:35 UTC NOAA

KHDE 201735Z AUTO 20010G15KT 10SM BKN026 OVC031 11/04 A2994 RMK AO2 T01050037


Station Type Date Time Source
KHDE Decoded METAR 2020/10/20 17:35 UTC NOAA

Brewster Field Airport, NE, United States (KHDE) 40-27N 099-20W
Oct 20, 2020 - 01:35 PM EDT / 2020.10.20 1735 UTC
Wind: from the SSW (200 degrees) at 12 MPH (10 KT) gusting to 17 MPH (15 KT):0
Visibility: 10 mile(s):0
Sky conditions: overcast
Temperature: 50.9 F (10.5 C)
Dew Point: 38.7 F (3.7 C)
Relative Humidity: 62%
Pressure (altimeter): 29.94 in. Hg (1013 hPa)
ob: KHDE 201735Z AUTO 20010G15KT 10SM BKN026 OVC031 11/04 A2994 RMK AO2 T01050037
cycle: 17

Station Type Date Time Source
KHDE TAF UTC NOAA

Error!

Example: see airport list